McKenna, Washington
Current Conditions -  °F | °C
As of 9:58 PM on Friday 28 Nov 2014 (Local Time) from KGRF Reporting Station
Drizzle Drizzle  
Wind Chill: 33°   Ceiling: 7500
Heat Index: 39°   Visibility: 10mi
Dew Point: 38°   Wind: 9mph
Humidity: 96%   Direction: 170°S
Pressure: 29.54"   Gusts: NA
Location:  46.93°N, 122.56°W
Report Text: KGRF 290558Z AUTO 17008KT 10SM DZ OVC075 04/04 A2954 RMK AO2 SLP008 P0000 60013 T00410035 10049 20037 52008 $
Loading
Personal Weather Stations






























Interactive Weather Map New forecast layout! Learn more

10-Day Weather Forecast

Advertisements
Track Severe Weather on mobile